Time;durP1;ratioP1;P1;durP2;ratioP2;P2;SDS_P1;SDS_P2;PMS_P1;PMS_P2;Temp;Humidity;BMP_temperature;BMP_pressure;BME280_temperature;BME280_humidity;BME280_pressure;Samples;Min_cycle;Max_cycle;Signal;HPM_P1;HPM_P2
2023/01/06 00:02:14;;;;;;;;;;;;;;;9.23;100.00;102479.69;5036376;28;19927;-80
2023/01/06 00:04:39;;;;;;;;;;;;;;;9.23;100.00;102475.31;5052783;28;19924;-80
2023/01/06 00:07:04;;;;;;;;;;;;;;;9.23;100.00;102477.94;5052283;28;19924;-80
2023/01/06 00:09:30;;;;;;;;;;;;;;;9.27;100.00;102478.56;5043641;28;19931;-80
2023/01/06 00:11:55;;;;;;;;;;;;;;;9.27;100.00;102468.03;5038071;28;19920;-80
2023/01/06 00:14:20;;;;;;;;;;;;;;;9.27;100.00;102460.94;5051351;28;19936;-79
2023/01/06 00:16:45;;;;;;;;;;;;;;;9.28;100.00;102456.56;5053861;28;19924;-80
2023/01/06 00:19:11;;;;;;;;;;;;;;;9.28;100.00;102456.56;5036378;28;20432;-80
2023/01/06 00:21:36;;;;;;;;;;;;;;;9.29;100.00;102447.69;5053337;28;20333;-79
2023/01/06 00:24:01;;;;;;;;;;;;;;;9.32;100.00;102452.78;5037432;28;19988;-79
2023/01/06 00:26:27;;;;;;;;;;;;;;;9.33;100.00;102450.97;5036455;28;19932;-80
2023/01/06 00:28:55;;;;;;;;;;;;;;;9.32;100.00;102442.22;5051982;28;21529;-80
2023/01/06 00:31:20;;;;;;;;;;;;;;;9.32;100.00;102431.69;5052653;28;19971;-80
2023/01/06 00:33:45;;;;;;;;;;;;;;;9.34;100.00;102428.94;5052483;28;19958;-80
2023/01/06 00:36:12;;;;;;;;;;;;;;;9.36;100.00;102419.13;5053075;28;19968;-80
2023/01/06 00:38:37;;;;;;;;;;;;;;;9.37;100.00;102402.41;5053938;28;19973;-79
2023/01/06 00:43:50;;;;;;;;;;;;;;;9.42;100.00;102381.84;5052134;28;19924;-79
2023/01/06 00:46:16;;;;;;;;;;;;;;;9.42;100.00;102369.50;5052609;28;19925;-79
2023/01/06 00:48:41;;;;;;;;;;;;;;;9.43;100.00;102355.38;5053534;28;20103;-80
2023/01/06 00:51:06;;;;;;;;;;;;;;;9.45;100.00;102337.69;5052539;28;20334;-80
2023/01/06 00:53:31;;;;;;;;;;;;;;;9.46;100.00;102330.59;5051381;28;19932;-80
2023/01/06 00:56:00;;;;;;;;;;;;;;;9.47;100.00;102314.69;5050842;28;19932;-80
2023/01/06 00:58:29;;;;;;;;;;;;;;;9.52;100.00;102303.81;5050988;28;20344;-80
2023/01/06 01:00:54;;;;;;;;;;;;;;;9.49;100.00;102285.56;5052100;28;20346;-79
2023/01/06 01:03:20;;;;;;;;;;;;;;;9.52;100.00;102280.09;5059080;28;19924;-78
2023/01/06 01:05:45;;;;;;;;;;;;;;;9.52;100.00;102250.28;5050148;28;19932;-79
2023/01/06 01:08:10;;;;;;;;;;;;;;;9.53;100.00;102236.97;5053571;28;20448;-79
2023/01/06 01:10:36;;;;;;;;;;;;;;;9.53;100.00;102226.44;5052304;28;19920;-79
2023/01/06 01:13:01;;;;;;;;;;;;;;;9.52;100.00;102203.69;5052227;28;20509;-79
2023/01/06 01:15:26;;;;;;;;;;;;;;;9.56;100.00;102191.09;5049213;28;19929;-78
2023/01/06 01:17:51;;;;;;;;;;;;;;;9.55;100.00;102170.97;5053222;28;20054;-80
2023/01/06 01:20:17;;;;;;;;;;;;;;;9.55;100.00;102152.53;5050420;28;20455;-80
2023/01/06 01:22:42;;;;;;;;;;;;;;;9.56;100.00;102143.66;5035757;28;19925;-80
2023/01/06 01:25:07;;;;;;;;;;;;;;;9.58;100.00;102132.09;5050494;28;19940;-79
2023/01/06 01:27:33;;;;;;;;;;;;;;;9.56;100.00;102112.03;5051659;28;19963;-78
2023/01/06 01:29:58;;;;;;;;;;;;;;;9.58;100.00;102099.59;5051221;28;19964;-78
2023/01/06 01:32:23;;;;;;;;;;;;;;;9.55;100.00;102079.56;5052372;28;19924;-80
2023/01/06 01:34:49;;;;;;;;;;;;;;;9.58;100.00;102067.97;5051942;28;20303;-79
2023/01/06 01:37:14;;;;;;;;;;;;;;;9.55;100.00;102058.50;5053427;28;20226;-78
2023/01/06 01:39:40;;;;;;;;;;;;;;;9.55;100.00;102044.47;5052217;28;19920;-80
2023/01/06 01:42:05;;;;;;;;;;;;;;;9.53;100.00;102030.56;5050816;28;19932;-80
2023/01/06 01:44:49;;;;;;;;;;;;;;;9.55;100.00;102016.31;5050942;28;19970;-81
2023/01/06 01:47:17;;;;;;;;;;;;;;;9.58;100.00;101999.44;5052664;28;20021;-79
2023/01/06 01:49:44;;;;;;;;;;;;;;;9.58;100.00;101978.34;5050108;28;19990;-80
2023/01/06 01:52:10;;;;;;;;;;;;;;;9.61;100.00;101946.50;5050616;28;19920;-80
2023/01/06 01:54:37;;;;;;;;;;;;;;;9.63;100.00;101918.25;5057824;28;20019;-80
2023/01/06 01:57:05;;;;;;;;;;;;;;;9.61;100.00;101899.91;5066171;28;19921;-80
2023/01/06 01:59:31;;;;;;;;;;;;;;;9.61;100.00;101873.53;5051311;28;19943;-80
2023/01/06 02:01:57;;;;;;;;;;;;;;;9.61;100.00;101854.25;5051002;28;20303;-80
2023/01/06 02:04:23;;;;;;;;;;;;;;;9.60;100.00;101827.06;5050061;28;19924;-80
2023/01/06 02:06:49;;;;;;;;;;;;;;;9.56;100.00;101822.13;5058295;28;20551;-80
2023/01/06 02:09:23;;;;;;;;;;;;;;;9.60;100.00;101805.97;5033801;28;19925;-80
2023/01/06 02:11:50;;;;;;;;;;;;;;;9.62;100.00;101800.56;5057317;28;19923;-80
2023/01/06 02:14:17;;;;;;;;;;;;;;;9.61;100.00;101789.19;5049673;28;20418;-80
2023/01/06 02:16:56;;;;;;;;;;;;;;;9.59;100.00;101775.28;5051440;28;19924;-80
2023/01/06 02:19:21;;;;;;;;;;;;;;;9.59;100.00;101762.13;5052500;28;19917;-80
2023/01/06 02:22:05;;;;;;;;;;;;;;;9.58;100.00;101742.00;5049735;28;19920;-80
2023/01/06 02:24:53;;;;;;;;;;;;;;;9.58;100.00;101720.06;5051045;28;19955;-80
2023/01/06 02:27:34;;;;;;;;;;;;;;;9.57;100.00;101719.22;5059519;28;19929;-80
2023/01/06 02:30:12;;;;;;;;;;;;;;;9.59;100.00;101711.22;5054355;28;19917;-81
2023/01/06 02:32:37;;;;;;;;;;;;;;;9.61;100.00;101704.03;5056256;28;19921;-80
2023/01/06 02:35:11;;;;;;;;;;;;;;;9.56;100.00;101693.84;5055792;28;19943;-80
2023/01/06 02:37:40;;;;;;;;;;;;;;;9.56;100.00;101679.81;5055137;28;20875;-81
2023/01/06 02:40:20;;;;;;;;;;;;;;;9.53;100.00;101661.63;5061465;28;19931;-80
2023/01/06 02:43:04;;;;;;;;;;;;;;;9.55;100.00;101668.44;5062212;28;19913;-81
2023/01/06 02:45:48;;;;;;;;;;;;;;;9.55;100.00;101664.97;5052141;28;19928;-80
2023/01/06 02:48:17;;;;;;;;;;;;;;;9.52;100.00;101652.91;5053506;28;19950;-80
2023/01/06 02:50:45;;;;;;;;;;;;;;;9.55;100.00;101641.25;5060578;28;19916;-80
2023/01/06 02:53:10;;;;;;;;;;;;;;;9.52;100.00;101618.63;5055381;28;19920;-80
2023/01/06 02:55:38;;;;;;;;;;;;;;;9.51;100.00;101614.31;5054997;28;19978;-81
2023/01/06 02:58:06;;;;;;;;;;;;;;;9.54;100.00;101600.03;5055262;28;19920;-80
2023/01/06 03:00:36;;;;;;;;;;;;;;;9.51;100.00;101595.03;5054267;28;19923;-80
2023/01/06 03:03:08;;;;;;;;;;;;;;;9.51;100.00;101589.78;5055565;28;19916;-80
2023/01/06 03:05:34;;;;;;;;;;;;;;;9.47;100.00;101582.13;5055165;28;19925;-80
2023/01/06 03:08:04;;;;;;;;;;;;;;;9.45;100.00;101573.50;5054131;28;19917;-81
2023/01/06 03:10:29;;;;;;;;;;;;;;;9.45;100.00;101578.78;5056492;28;19917;-80
2023/01/06 03:12:59;;;;;;;;;;;;;;;9.45;100.00;101568.22;5054245;28;20722;-81
2023/01/06 03:15:24;;;;;;;;;;;;;;;9.48;100.00;101553.97;5052490;28;19932;-80
2023/01/06 03:17:50;;;;;;;;;;;;;;;9.48;100.00;101546.91;5054245;28;19924;-81
2023/01/06 03:20:16;;;;;;;;;;;;;;;9.43;100.00;101530.63;5053035;28;19966;-80
2023/01/06 03:22:42;;;;;;;;;;;;;;;9.43;100.00;101538.53;5054859;28;19925;-80
2023/01/06 03:25:07;;;;;;;;;;;;;;;9.45;100.00;101541.88;5051921;28;20420;-80
2023/01/06 03:27:33;;;;;;;;;;;;;;;9.45;100.00;101536.63;5054296;28;19931;-80
2023/01/06 03:29:59;;;;;;;;;;;;;;;9.42;100.00;101520.22;5054139;28;20006;-80
2023/01/06 03:32:24;;;;;;;;;;;;;;;9.42;100.00;101514.94;5054317;28;20447;-80
2023/01/06 03:35:03;;;;;;;;;;;;;;;9.41;100.00;101519.38;5053426;28;20020;-81
2023/01/06 03:38:01;;;;;;;;;;;;;;;9.42;100.00;101510.50;5053810;28;19921;-80
2023/01/06 03:40:36;;;;;;;;;;;;;;;9.45;100.00;101498.88;4975762;28;20357;-80
2023/01/06 03:43:12;;;;;;;;;;;;;;;9.43;100.00;101500.81;4975412;28;19917;-80
2023/01/06 03:45:56;;;;;;;;;;;;;;;9.44;100.00;101498.03;4985984;28;19929;-79
2023/01/06 03:48:30;;;;;;;;;;;;;;;9.41;100.00;101498.31;4989227;28;20016;-80
2023/01/06 03:51:14;;;;;;;;;;;;;;;9.40;100.00;101478.19;4986742;28;19921;-80
2023/01/06 03:53:54;;;;;;;;;;;;;;;9.40;100.00;101461.53;4987470;28;19918;-79
2023/01/06 03:56:19;;;;;;;;;;;;;;;9.37;100.00;101454.72;4958397;28;19927;-80
2023/01/06 03:58:47;;;;;;;;;;;;;;;9.37;100.00;101459.19;4988647;28;19930;-80
2023/01/06 04:01:13;;;;;;;;;;;;;;;9.35;100.00;101451.38;4973645;28;20448;-80
2023/01/06 04:03:39;;;;;;;;;;;;;;;9.32;100.00;101449.03;4987916;28;20503;-81
2023/01/06 04:06:04;;;;;;;;;;;;;;;9.35;100.00;101451.38;4974037;28;19978;-80
2023/01/06 04:08:29;;;;;;;;;;;;;;;9.37;100.00;101453.91;4989221;28;20409;-80
2023/01/06 04:10:54;;;;;;;;;;;;;;;9.34;100.00;101448.88;4973056;28;19944;-80
2023/01/06 04:13:20;;;;;;;;;;;;;;;9.33;100.00;101452.47;4972774;28;20028;-80
2023/01/06 04:15:45;;;;;;;;;;;;;;;9.34;100.00;101444.47;4981986;28;19944;-79
2023/01/06 04:18:10;;;;;;;;;;;;;;;9.33;100.00;101432.25;5051265;28;19924;-80
2023/01/06 04:20:36;;;;;;;;;;;;;;;9.34;100.00;101422.53;5051829;28;19935;-80
2023/01/06 04:23:01;;;;;;;;;;;;;;;9.35;100.00;101413.69;5053924;28;19920;-80
2023/01/06 04:25:26;;;;;;;;;;;;;;;9.35;100.00;101419.78;5051905;28;19928;-80
2023/01/06 04:27:51;;;;;;;;;;;;;;;9.30;100.00;101406.16;5052677;28;19920;-80
2023/01/06 04:30:17;;;;;;;;;;;;;;;9.32;100.00;101414.78;5056867;28;20014;-80
2023/01/06 04:32:42;;;;;;;;;;;;;;;9.33;100.00;101416.44;5051386;28;19924;-81
2023/01/06 04:35:07;;;;;;;;;;;;;;;9.33;100.00;101411.16;5054256;28;19924;-80
2023/01/06 04:37:33;;;;;;;;;;;;;;;9.31;100.00;101405.19;5060937;28;19913;-80
2023/01/06 04:39:58;;;;;;;;;;;;;;;9.31;100.00;101397.28;5051254;28;19931;-80
2023/01/06 04:42:25;;;;;;;;;;;;;;;9.33;100.00;101410.34;5036556;28;19927;-81
2023/01/06 04:44:50;;;;;;;;;;;;;;;9.37;100.00;101390.69;5050941;28;19978;-80
2023/01/06 04:47:16;;;;;;;;;;;;;;;9.36;100.00;101381.91;5035036;28;20000;-80
2023/01/06 04:49:41;;;;;;;;;;;;;;;9.34;100.00;101370.69;5052604;28;19956;-80
2023/01/06 04:52:07;;;;;;;;;;;;;;;9.34;100.00;101367.22;5051576;28;20494;-80
2023/01/06 04:54:33;;;;;;;;;;;;;;;9.34;100.00;101359.31;5060421;28;19920;-81
2023/01/06 04:56:58;;;;;;;;;;;;;;;9.34;100.00;101370.69;5051083;28;20427;-79
2023/01/06 04:59:23;;;;;;;;;;;;;;;9.33;100.00;101347.13;5052324;28;20088;-80
2023/01/06 05:01:49;;;;;;;;;;;;;;;9.32;100.00;101350.69;5051912;28;19924;-79
2023/01/06 05:04:14;;;;;;;;;;;;;;;9.28;100.00;101344.88;5049890;28;19924;-79
2023/01/06 05:06:39;;;;;;;;;;;;;;;9.29;100.00;101341.25;5051323;28;19928;-79
2023/01/06 05:09:05;;;;;;;;;;;;;;;9.29;100.00;101341.25;5042873;28;19920;-79
2023/01/06 05:11:30;;;;;;;;;;;;;;;9.30;100.00;101340.31;5051960;28;20293;-79
2023/01/06 05:13:56;;;;;;;;;;;;;;;9.32;100.00;101330.47;5051973;28;20066;-79
2023/01/06 05:16:21;;;;;;;;;;;;;;;9.34;100.00;101325.06;5049741;28;20506;-79
2023/01/06 05:18:46;;;;;;;;;;;;;;;9.33;100.00;101320.78;5051863;28;20095;-79
2023/01/06 05:21:11;;;;;;;;;;;;;;;9.35;100.00;101313.59;5050202;28;19921;-79
2023/01/06 05:23:37;;;;;;;;;;;;;;;9.36;100.00;101310.78;5035054;28;19928;-80
2023/01/06 05:26:03;;;;;;;;;;;;;;;9.35;100.00;101305.69;5052007;28;19983;-79
2023/01/06 05:28:29;;;;;;;;;;;;;;;9.42;100.00;101293.63;5051684;28;20011;-81
2023/01/06 05:30:58;;;;;;;;;;;;;;;9.43;100.00;101290.88;5051843;28;20054;-79
2023/01/06 05:33:23;;;;;;;;;;;;;;;9.47;100.00;101280.91;5057600;28;19947;-79
2023/01/06 05:35:48;;;;;;;;;;;;;;;9.43;100.00;101275.06;5037488;28;19916;-79
2023/01/06 05:38:14;;;;;;;;;;;;;;;9.45;100.00;101267.03;5034691;28;19921;-80
2023/01/06 05:40:39;;;;;;;;;;;;;;;9.41;100.00;101255.94;5053212;28;19927;-79
2023/01/06 05:43:04;;;;;;;;;;;;;;;9.45;100.00;101252.06;5051086;28;19917;-78
2023/01/06 05:45:29;;;;;;;;;;;;;;;9.46;100.00;101252.91;5050641;28;19924;-79
2023/01/06 05:47:56;;;;;;;;;;;;;;;9.47;100.00;101250.13;5052000;28;20031;-80
2023/01/06 05:50:21;;;;;;;;;;;;;;;9.45;100.00;101241.53;5036193;28;19943;-79
2023/01/06 05:52:47;;;;;;;;;;;;;;;9.45;100.00;101257.34;5053013;28;19920;-79
2023/01/06 05:55:12;;;;;;;;;;;;;;;9.41;100.00;101255.09;5051087;28;19917;-79
2023/01/06 05:57:37;;;;;;;;;;;;;;;9.39;100.00;101242.06;5050092;28;20279;-79
2023/01/06 06:00:04;;;;;;;;;;;;;;;9.37;100.00;101245.78;5049869;28;19924;-79
2023/01/06 06:02:29;;;;;;;;;;;;;;;9.31;100.00;101260.31;5049188;28;19936;-79
2023/01/06 06:04:54;;;;;;;;;;;;;;;9.19;100.00;101269.25;5033914;28;19933;-79
2023/01/06 06:07:20;;;;;;;;;;;;;;;9.10;100.00;101291.09;5052465;28;20003;-79
2023/01/06 06:09:45;;;;;;;;;;;;;;;8.97;100.00;101301.81;5034709;28;19935;-79
2023/01/06 06:12:11;;;;;;;;;;;;;;;8.84;100.00;101312.53;5052819;28;19931;-79
2023/01/06 06:14:36;;;;;;;;;;;;;;;8.79;100.00;101346.31;5051797;28;19924;-79
2023/01/06 06:17:01;;;;;;;;;;;;;;;8.75;100.00;101373.84;5049532;28;19925;-79
2023/01/06 06:19:27;;;;;;;;;;;;;;;8.72;100.00;101390.72;5050737;28;19954;-79
2023/01/06 06:21:52;;;;;;;;;;;;;;;8.71;100.00;101431.16;5058192;28;19924;-79
2023/01/06 06:24:17;;;;;;;;;;;;;;;8.70;100.00;101445.28;5052059;28;19921;-79
2023/01/06 06:26:42;;;;;;;;;;;;;;;8.71;100.00;101464.53;5052546;28;19928;-79
2023/01/06 06:29:08;;;;;;;;;;;;;;;8.68;100.00;101480.56;5053816;28;20552;-79
2023/01/06 06:31:33;;;;;;;;;;;;;;;8.62;100.00;101485.38;5052642;28;20030;-79
2023/01/06 06:33:59;;;;;;;;;;;;;;;8.67;100.00;101513.94;5034434;28;19982;-79
2023/01/06 06:36:25;;;;;;;;;;;;;;;8.73;100.00;101531.03;5051206;28;20443;-79
2023/01/06 06:38:51;;;;;;;;;;;;;;;8.74;100.00;101554.59;5049279;28;19924;-80
2023/01/06 06:41:17;;;;;;;;;;;;;;;8.71;100.00;101567.16;5050160;28;19920;-79
2023/01/06 06:43:42;;;;;;;;;;;;;;;8.73;100.00;101575.75;5049044;28;19928;-80
2023/01/06 06:46:08;;;;;;;;;;;;;;;8.73;100.00;101581.03;5049794;28;19953;-80
2023/01/06 06:48:33;;;;;;;;;;;;;;;8.73;100.00;101584.53;5049204;28;19952;-81
2023/01/06 06:51:06;;;;;;;;;;;;;;;8.74;100.00;101598.50;5052716;28;19931;-82
2023/01/06 06:53:32;;;;;;;;;;;;;;;8.73;100.00;101596.81;5050738;28;20398;-82
2023/01/06 06:55:57;;;;;;;;;;;;;;;8.75;100.00;101624.69;5057532;28;19924;-80
2023/01/06 06:58:22;;;;;;;;;;;;;;;8.75;100.00;101631.75;5050129;28;20015;-81
2023/01/06 07:00:48;;;;;;;;;;;;;;;8.74;100.00;101638.00;5050564;28;20326;-81
2023/01/06 07:03:13;;;;;;;;;;;;;;;8.73;100.00;101649.47;5057604;28;19924;-82
2023/01/06 07:05:40;;;;;;;;;;;;;;;8.71;100.00;101661.91;5050093;28;19925;-82
2023/01/06 07:08:07;;;;;;;;;;;;;;;8.73;100.00;101670.50;5050619;28;19916;-82
2023/01/06 07:10:32;;;;;;;;;;;;;;;8.72;100.00;101682.84;5036910;28;20368;-82
2023/01/06 07:12:57;;;;;;;;;;;;;;;8.72;100.00;101697.81;5051500;28;19969;-82
2023/01/06 07:15:23;;;;;;;;;;;;;;;8.69;100.00;101726.97;5054520;28;19997;-81
2023/01/06 07:17:48;;;;;;;;;;;;;;;8.68;100.00;101728.75;5053572;28;19964;-82
2023/01/06 07:20:13;;;;;;;;;;;;;;;8.65;100.00;101758.78;5052348;28;20307;-81
2023/01/06 07:22:39;;;;;;;;;;;;;;;8.65;100.00;101784.28;5054040;28;19913;-81
2023/01/06 07:25:05;;;;;;;;;;;;;;;8.68;100.00;101799.81;5053525;28;20452;-82
2023/01/06 07:27:30;;;;;;;;;;;;;;;8.72;100.00;101821.50;5052686;28;20678;-81
2023/01/06 07:29:55;;;;;;;;;;;;;;;8.72;100.00;101847.81;5053169;28;19928;-82
2023/01/06 07:32:21;;;;;;;;;;;;;;;8.72;100.00;101845.19;5053905;28;20405;-81
2023/01/06 07:34:46;;;;;;;;;;;;;;;8.76;100.00;101870.31;5054042;28;19927;-84
2023/01/06 07:37:11;;;;;;;;;;;;;;;8.82;100.00;101869.88;5053084;28;19970;-82
2023/01/06 07:39:36;;;;;;;;;;;;;;;8.87;100.00;101886.16;5052705;28;19924;-82
2023/01/06 07:42:02;;;;;;;;;;;;;;;8.88;100.00;101901.00;5052667;28;20246;-81
2023/01/06 07:44:27;;;;;;;;;;;;;;;8.88;100.00;101900.16;5053561;28;19925;-81
2023/01/06 07:46:53;;;;;;;;;;;;;;;8.89;100.00;101910.59;5036459;28;20006;-81
2023/01/06 07:49:18;;;;;;;;;;;;;;;8.92;100.00;101927.94;5053434;28;20605;-81
2023/01/06 07:51:43;;;;;;;;;;;;;;;8.92;100.00;101927.94;5051387;28;20024;-81
2023/01/06 07:54:09;;;;;;;;;;;;;;;8.91;100.00;101935.00;5036260;28;19963;-80
2023/01/06 07:56:34;;;;;;;;;;;;;;;8.89;100.00;101938.72;5056093;28;20312;-82
2023/01/06 07:58:59;;;;;;;;;;;;;;;8.89;100.00;101944.81;5036027;28;19979;-82
2023/01/06 08:01:24;;;;;;;;;;;;;;;8.89;100.00;101947.44;5051734;28;19917;-81
2023/01/06 08:03:49;;;;;;;;;;;;;;;8.85;100.00;101943.34;5051692;28;19924;-81
2023/01/06 08:06:15;;;;;;;;;;;;;;;8.80;100.00;101934.97;5052567;28;20130;-82
2023/01/06 08:08:40;;;;;;;;;;;;;;;8.71;100.00;101922.44;5054781;28;19945;-82
2023/01/06 08:11:06;;;;;;;;;;;;;;;8.61;100.00;101894.16;5053587;28;19990;-82
2023/01/06 08:13:32;;;;;;;;;;;;;;;8.48;100.00;101882.03;5053329;28;19942;-81
2023/01/06 08:15:58;;;;;;;;;;;;;;;8.39;100.00;101849.31;5053796;28;19931;-82
2023/01/06 08:18:23;;;;;;;;;;;;;;;8.27;100.00;101808.94;5054730;28;20011;-82
2023/01/06 08:20:48;;;;;;;;;;;;;;;8.21;100.00;101793.63;5037121;28;19939;-82
2023/01/06 08:23:14;;;;;;;;;;;;;;;8.19;100.00;101767.44;5054192;28;19920;-81
2023/01/06 08:25:39;;;;;;;;;;;;;;;8.17;100.00;101753.53;5051912;28;20520;-83
2023/01/06 08:28:04;;;;;;;;;;;;;;;8.11;100.00;101738.22;5051352;28;19921;-83
2023/01/06 08:30:29;;;;;;;;;;;;;;;8.10;100.00;101718.16;5035517;28;19925;-82
2023/01/06 08:32:56;;;;;;;;;;;;;;;8.05;100.00;101707.09;5053041;28;19952;-82
2023/01/06 08:35:21;;;;;;;;;;;;;;;8.04;100.00;101689.66;5053766;28;19997;-82
2023/01/06 08:37:46;;;;;;;;;;;;;;;8.02;100.00;101679.25;5043123;28;19935;-81
2023/01/06 08:40:11;;;;;;;;;;;;;;;8.10;100.00;101670.81;5052272;28;19985;-82
2023/01/06 08:42:37;;;;;;;;;;;;;;;8.04;100.00;101653.69;5060616;28;20015;-81
2023/01/06 08:45:02;;;;;;;;;;;;;;;8.14;100.00;101645.94;5052766;28;19929;-82
2023/01/06 08:47:27;;;;;;;;;;;;;;;8.20;100.00;101636.78;5052879;28;20304;-82
2023/01/06 08:49:53;;;;;;;;;;;;;;;8.30;100.00;101631.69;5053886;28;19935;-81
2023/01/06 08:52:18;;;;;;;;;;;;;;;8.38;100.00;101618.75;5052152;28;19929;-81
2023/01/06 08:54:43;;;;;;;;;;;;;;;8.42;100.00;101607.91;5053685;28;19932;-82
2023/01/06 08:57:10;;;;;;;;;;;;;;;8.63;100.00;101594.09;5051469;28;20668;-81
2023/01/06 08:59:35;;;;;;;;;;;;;;;8.70;100.00;101587.38;5036905;28;20035;-81
2023/01/06 09:02:00;;;;;;;;;;;;;;;8.77;100.00;101571.94;5051858;28;20405;-82
2023/01/06 09:04:26;;;;;;;;;;;;;;;8.70;100.00;101560.22;5053760;28;20002;-82
2023/01/06 09:06:51;;;;;;;;;;;;;;;8.77;100.00;101556.16;5052787;28;20016;-82
2023/01/06 09:09:16;;;;;;;;;;;;;;;8.85;100.00;101548.50;5053530;28;19924;-82
2023/01/06 09:11:42;;;;;;;;;;;;;;;8.89;100.00;101536.75;5052099;28;19939;-82
2023/01/06 09:14:08;;;;;;;;;;;;;;;9.30;100.00;101543.13;5052857;28;19917;-82
2023/01/06 09:16:34;;;;;;;;;;;;;;;9.58;100.00;101527.69;5051648;28;19930;-82
2023/01/06 09:18:59;;;;;;;;;;;;;;;9.79;100.00;101514.53;5051596;28;19929;-82
2023/01/06 09:21:24;;;;;;;;;;;;;;;10.47;100.00;101513.13;5035470;28;19932;-81
2023/01/06 09:23:50;;;;;;;;;;;;;;;10.39;100.00;101488.38;5037550;28;20106;-82
2023/01/06 09:26:16;;;;;;;;;;;;;;;10.52;100.00;101475.78;5071637;28;19960;-81
2023/01/06 09:28:41;;;;;;;;;;;;;;;10.90;100.00;101469.75;5062038;28;19929;-82
2023/01/06 09:31:07;;;;;;;;;;;;;;;11.05;100.00;101461.44;5053157;28;19922;-82
2023/01/06 09:33:32;;;;;;;;;;;;;;;11.38;100.00;101457.53;5052164;28;20024;-81
2023/01/06 09:35:58;;;;;;;;;;;;;;;11.61;100.00;101451.94;5052481;28;19921;-82
2023/01/06 09:38:23;;;;;;;;;;;;;;;12.53;100.00;101443.28;5052741;28;19928;-82
2023/01/06 09:40:51;;;;;;;;;;;;;;;13.86;100.00;101434.50;5050940;28;20690;-83
2023/01/06 09:43:25;;;;;;;;;;;;;;;14.93;100.00;101424.28;5051875;28;20285;-81
2023/01/06 09:45:54;;;;;;;;;;;;;;;15.42;100.00;101426.97;5051780;28;19928;-81
2023/01/06 09:48:28;;;;;;;;;;;;;;;16.55;100.00;101433.94;5051178;28;19921;-83
2023/01/06 09:50:58;;;;;;;;;;;;;;;17.60;100.00;101434.19;5051900;28;20519;-82
2023/01/06 09:53:24;;;;;;;;;;;;;;;18.29;100.00;101439.28;5067619;28;19970;-81
2023/01/06 09:55:56;;;;;;;;;;;;;;;17.03;99.78;101434.69;5052235;28;19917;-83
2023/01/06 09:58:42;;;;;;;;;;;;;;;15.68;100.00;101441.88;5052024;28;19982;-81
2023/01/06 10:01:10;;;;;;;;;;;;;;;14.63;100.00;101447.78;5033173;28;20533;-82
2023/01/06 10:03:35;;;;;;;;;;;;;;;14.31;100.00;101456.47;5052493;28;19924;-81
2023/01/06 10:06:19;;;;;;;;;;;;;;;14.08;100.00;101450.88;5056402;28;19928;-82
2023/01/06 10:09:03;;;;;;;;;;;;;;;15.57;100.00;101451.03;5057770;28;20372;-81
2023/01/06 10:11:31;;;;;;;;;;;;;;;16.48;100.00;101448.97;5051289;28;19925;-83
2023/01/06 10:14:10;;;;;;;;;;;;;;;17.48;100.00;101459.63;5051843;28;19921;-82
2023/01/06 10:16:58;;;;;;;;;;;;;;;18.18;100.00;101463.81;5051904;28;20392;-82
2023/01/06 10:19:26;;;;;;;;;;;;;;;17.75;97.41;101457.41;5010639;28;19924;-82
2023/01/06 10:22:00;;;;;;;;;;;;;;;17.88;96.17;101468.31;5051414;28;19916;-82
2023/01/06 10:24:35;;;;;;;;;;;;;;;17.93;96.13;101457.06;5052097;28;20361;-82
2023/01/06 10:27:21;;;;;;;;;;;;;;;17.94;90.53;101451.53;5052906;28;20516;-81
2023/01/06 10:29:47;;;;;;;;;;;;;;;18.54;93.22;101446.97;5050763;28;20364;-81
2023/01/06 10:32:14;;;;;;;;;;;;;;;19.62;83.69;101460.34;5055623;28;19982;-83
2023/01/06 10:34:40;;;;;;;;;;;;;;;19.82;82.25;101453.34;5053277;28;19969;-83
2023/01/06 10:37:11;;;;;;;;;;;;;;;20.00;76.96;101452.00;5050562;28;19921;-83
2023/01/06 10:39:38;;;;;;;;;;;;;;;20.14;74.48;101454.56;5050696;28;19925;-83
2023/01/06 10:44:53;;;;;;;;;;;;;;;19.93;74.53;101465.34;5051635;28;20524;-83
2023/01/06 10:47:27;;;;;;;;;;;;;;;19.88;74.16;101462.41;5052721;28;19924;-82
2023/01/06 10:49:52;;;;;;;;;;;;;;;18.61;77.99;101468.44;5055135;28;19920;-83
2023/01/06 10:52:19;;;;;;;;;;;;;;;18.20;84.48;101466.28;5057071;28;19920;-82
2023/01/06 10:54:45;;;;;;;;;;;;;;;17.31;86.42;101466.97;5055462;28;20346;-83
2023/01/06 10:57:22;;;;;;;;;;;;;;;17.15;91.65;101464.41;5061198;28;19990;-83
2023/01/06 11:00:06;;;;;;;;;;;;;;;17.30;92.64;101465.31;5060362;28;19951;-82
2023/01/06 11:02:31;;;;;;;;;;;;;;;16.71;93.90;101455.19;5054456;28;20022;-82
2023/01/06 11:04:59;;;;;;;;;;;;;;;16.42;97.59;101446.00;5038187;28;19951;-83
2023/01/06 11:07:24;;;;;;;;;;;;;;;16.03;98.03;101449.47;5054052;28;20007;-82
2023/01/06 11:09:50;;;;;;;;;;;;;;;16.59;100.00;101453.91;5038478;28;20113;-83
2023/01/06 11:12:18;;;;;;;;;;;;;;;16.77;100.00;101457.16;5038706;28;19958;-84
2023/01/06 11:14:49;;;;;;;;;;;;;;;16.84;98.94;101463.47;5068478;28;19921;-81
2023/01/06 11:17:15;;;;;;;;;;;;;;;16.51;96.83;101478.78;5056896;28;19925;-83
2023/01/06 11:19:42;;;;;;;;;;;;;;;15.52;100.00;101470.16;5053072;28;19951;-81
2023/01/06 11:22:31;;;;;;;;;;;;;;;14.63;100.00;101471.69;5053403;28;20463;-80
2023/01/06 11:24:56;;;;;;;;;;;;;;;14.25;100.00;101476.50;5053376;28;20726;-82
2023/01/06 11:27:22;;;;;;;;;;;;;;;14.02;100.00;101464.78;5054620;28;19928;-82
2023/01/06 11:29:47;;;;;;;;;;;;;;;13.93;100.00;101462.06;5053948;28;20529;-80
2023/01/06 11:32:12;;;;;;;;;;;;;;;14.19;100.00;101463.88;5053207;28;19925;-82
2023/01/06 11:34:37;;;;;;;;;;;;;;;13.52;100.00;101461.81;5053825;28;19912;-80
2023/01/06 11:37:03;;;;;;;;;;;;;;;13.11;100.00;101461.44;5053560;28;19921;-80
2023/01/06 11:39:33;;;;;;;;;;;;;;;12.66;100.00;101467.59;5055088;28;19924;-79
2023/01/06 11:42:16;;;;;;;;;;;;;;;12.26;100.00;101450.25;5054097;28;19924;-80
2023/01/06 11:44:42;;;;;;;;;;;;;;;11.62;100.00;101462.38;5052584;28;19924;-80
2023/01/06 11:47:19;;;;;;;;;;;;;;;11.59;100.00;101453.91;5054414;28;19935;-80
2023/01/06 11:49:56;;;;;;;;;;;;;;;11.42;100.00;101458.91;5055274;28;19916;-79
2023/01/06 11:52:21;;;;;;;;;;;;;;;11.43;100.00;101468.53;5055067;28;19920;-80
2023/01/06 11:54:55;;;;;;;;;;;;;;;11.07;100.00;101462.13;5054430;28;20301;-80
2023/01/06 11:57:21;;;;;;;;;;;;;;;10.97;100.00;101463.91;5054741;28;19916;-80
2023/01/06 11:59:46;;;;;;;;;;;;;;;10.97;100.00;101470.03;5053661;28;19921;-79
2023/01/06 12:02:16;;;;;;;;;;;;;;;10.99;100.00;101461.97;5053558;28;19961;-80
2023/01/06 12:04:45;;;;;;;;;;;;;;;10.93;100.00;101476.56;5053562;28;19920;-80
2023/01/06 12:07:19;;;;;;;;;;;;;;;10.97;100.00;101463.91;5053858;28;19952;-80
2023/01/06 12:09:48;;;;;;;;;;;;;;;10.66;100.00;101464.84;5051113;28;19963;-80
2023/01/06 12:12:17;;;;;;;;;;;;;;;10.72;100.00;101473.19;5052959;28;19920;-81
2023/01/06 12:14:43;;;;;;;;;;;;;;;10.54;100.00;101480.91;5053798;28;19928;-79
2023/01/06 12:17:16;;;;;;;;;;;;;;;10.64;100.00;101482.59;5037156;28;19931;-79
2023/01/06 12:20:04;;;;;;;;;;;;;;;10.74;100.00;101481.81;5052934;28;19916;-79
2023/01/06 12:22:29;;;;;;;;;;;;;;;10.66;100.00;101479.84;5053595;28;19917;-80
2023/01/06 12:24:56;;;;;;;;;;;;;;;10.62;100.00;101479.28;5054601;28;19935;-80
2023/01/06 12:27:42;;;;;;;;;;;;;;;10.61;100.00;101482.91;5053821;28;19916;-80
2023/01/06 12:30:14;;;;;;;;;;;;;;;10.49;100.00;101489.22;5068584;28;19924;-80
2023/01/06 12:32:42;;;;;;;;;;;;;;;10.31;100.00;101496.94;5054029;28;19917;-80
2023/01/06 12:35:11;;;;;;;;;;;;;;;10.27;100.00;101485.78;5052527;28;19916;-80
2023/01/06 12:37:56;;;;;;;;;;;;;;;10.17;100.00;101495.47;5053916;28;20737;-79
2023/01/06 12:40:27;;;;;;;;;;;;;;;10.01;100.00;101484.53;5051973;28;20344;-79
2023/01/06 12:42:57;;;;;;;;;;;;;;;9.97;100.00;101491.88;5057771;28;20015;-79
2023/01/06 12:45:40;;;;;;;;;;;;;;;10.00;100.00;101498.72;5051351;28;19931;-80